Time;durP1;ratioP1;P1;durP2;ratioP2;P2;SDS_P1;SDS_P2;PMS_P1;PMS_P2;Temp;Humidity;BMP_temperature;BMP_pressure;BME280_temperature;BME280_humidity;BME280_pressure;Samples;Min_cycle;Max_cycle;Signal;HPM_P1;HPM_P2
2023/03/18 00:01:09;0.00;0.00;0.62;0.00;0.00;0.62;2.00;1.03;;;24.10;22.10;;;;;;2264176;61;20360;-52
2023/03/18 00:03:54;0.00;0.00;0.62;0.00;0.00;0.62;1.40;0.90;;;24.10;22.10;;;;;;2263974;61;20957;-55
2023/03/18 00:06:40;0.00;0.00;0.62;0.00;0.00;0.62;1.73;1.00;;;24.10;22.10;;;;;;2263931;61;20470;-53
2023/03/18 00:09:24;0.00;0.00;0.62;0.00;0.00;0.62;1.50;0.97;;;24.10;22.10;;;;;;2263313;61;20708;-53
2023/03/18 00:12:10;0.00;0.00;0.62;0.00;0.00;0.62;1.60;1.00;;;24.10;22.10;;;;;;2264315;61;20407;-53
2023/03/18 00:14:55;0.00;0.00;0.62;0.00;0.00;0.62;1.80;1.00;;;24.10;22.10;;;;;;2264251;61;20405;-56
2023/03/18 00:17:40;0.00;0.00;0.62;0.00;0.00;0.62;2.43;1.07;;;24.10;22.10;;;;;;2263734;61;20368;-57
2023/03/18 00:20:37;0.00;0.00;0.62;0.00;0.00;0.62;1.70;1.00;;;24.00;22.00;;;;;;2263976;61;20388;-59
2023/03/18 00:23:23;0.00;0.00;0.62;0.00;0.00;0.62;1.60;0.93;;;24.10;22.10;;;;;;2264220;61;20780;-55
2023/03/18 00:26:08;0.00;0.00;0.62;0.00;0.00;0.62;1.93;1.10;;;24.00;22.00;;;;;;2263687;61;20971;-54
2023/03/18 00:28:56;0.00;0.00;0.62;0.00;0.00;0.62;1.50;0.97;;;24.00;22.00;;;;;;2264026;61;20935;-56
2023/03/18 00:31:40;0.00;0.00;0.62;0.00;0.00;0.62;1.40;1.00;;;24.00;22.00;;;;;;2263639;61;20801;-55
2023/03/18 00:34:25;0.00;0.00;0.62;0.00;0.00;0.62;1.30;0.80;;;24.00;22.00;;;;;;2264241;61;20840;-58
2023/03/18 00:37:17;0.00;0.00;0.62;0.00;0.00;0.62;1.80;1.20;;;24.00;22.00;;;;;;2266629;61;20414;-60
2023/03/18 00:40:09;0.00;0.00;0.62;0.00;0.00;0.62;1.60;1.10;;;24.00;22.00;;;;;;2265542;61;20361;-60
2023/03/18 00:43:00;0.00;0.00;0.62;0.00;0.00;0.62;1.60;1.10;;;24.00;22.10;;;;;;2264205;61;20471;-54
2023/03/18 00:45:45;0.00;0.00;0.62;0.00;0.00;0.62;1.43;0.83;;;24.00;22.00;;;;;;2264239;61;20387;-54
2023/03/18 00:48:30;0.00;0.00;0.62;0.00;0.00;0.62;1.50;1.00;;;24.00;22.00;;;;;;2266569;61;20438;-53
2023/03/18 00:51:16;0.00;0.00;0.62;0.00;0.00;0.62;1.50;0.87;;;24.00;22.00;;;;;;2264022;61;20802;-58
2023/03/18 00:54:06;0.00;0.00;0.62;0.00;0.00;0.62;1.60;1.00;;;24.00;22.00;;;;;;2263026;61;20449;-56
2023/03/18 00:56:52;0.00;0.00;0.62;0.00;0.00;0.62;1.53;0.90;;;24.00;22.00;;;;;;2264438;61;20352;-57
2023/03/18 00:59:37;0.00;0.00;0.62;0.00;0.00;0.62;1.60;0.97;;;24.00;22.10;;;;;;2264873;61;20892;-58
2023/03/18 01:02:22;0.00;0.00;0.62;0.00;0.00;0.62;1.70;1.00;;;24.00;22.10;;;;;;2264139;61;20418;-58
2023/03/18 01:05:07;0.00;0.00;0.62;0.00;0.00;0.62;1.83;1.10;;;24.00;22.10;;;;;;2267325;61;20384;-56
2023/03/18 01:07:52;0.00;0.00;0.62;0.00;0.00;0.62;1.70;1.00;;;24.00;22.10;;;;;;2267394;61;20455;-53
2023/03/18 01:10:37;0.00;0.00;0.62;0.00;0.00;0.62;2.00;1.20;;;24.00;22.10;;;;;;2263863;61;20395;-55
2023/03/18 01:13:24;0.00;0.00;0.62;0.00;0.00;0.62;1.50;1.00;;;24.00;22.10;;;;;;2266949;61;20363;-55
2023/03/18 01:16:10;0.00;0.00;0.62;0.00;0.00;0.62;1.50;0.97;;;24.00;22.10;;;;;;2264172;61;20379;-55
2023/03/18 01:18:56;0.00;0.00;0.62;0.00;0.00;0.62;1.70;1.27;;;24.00;22.10;;;;;;2264435;61;20383;-56
2023/03/18 01:21:41;0.00;0.00;0.62;0.00;0.00;0.62;1.30;0.80;;;24.00;22.10;;;;;;2267189;61;20368;-52
2023/03/18 01:24:26;0.00;0.00;0.62;0.00;0.00;0.62;1.60;0.90;;;24.00;22.10;;;;;;2263969;61;20387;-58
2023/03/18 01:27:11;0.00;0.00;0.62;0.00;0.00;0.62;1.57;1.00;;;24.00;22.70;;;;;;2264744;61;20380;-55
2023/03/18 01:29:59;0.00;0.00;0.62;0.00;0.00;0.62;1.63;1.03;;;24.00;22.10;;;;;;2266796;61;20449;-57
2023/03/18 01:32:45;0.00;0.00;0.62;0.00;0.00;0.62;2.07;1.20;;;24.00;22.10;;;;;;2266667;61;20364;-55
2023/03/18 01:35:31;0.00;0.00;0.62;0.00;0.00;0.62;1.60;1.20;;;24.00;22.10;;;;;;2264423;61;20878;-55
2023/03/18 01:38:15;0.00;0.00;0.62;0.00;0.00;0.62;1.80;1.03;;;24.00;22.10;;;;;;2266369;61;20483;-60
2023/03/18 01:41:01;0.00;0.00;0.62;0.00;0.00;0.62;2.33;1.10;;;24.00;22.60;;;;;;2264410;61;20360;-54
2023/03/18 01:43:47;0.00;0.00;0.62;0.00;0.00;0.62;1.40;0.90;;;24.00;22.10;;;;;;2264423;61;20367;-58
2023/03/18 01:46:38;0.00;0.00;0.62;0.00;0.00;0.62;2.03;1.33;;;24.00;22.10;;;;;;2263432;61;20403;-57
2023/03/18 01:49:29;0.00;0.00;0.62;0.00;0.00;0.62;1.77;0.97;;;24.00;22.10;;;;;;2263961;61;20766;-59
2023/03/18 01:52:20;0.00;0.00;0.62;0.00;0.00;0.62;1.80;1.20;;;24.00;22.10;;;;;;2267120;61;20352;-56
2023/03/18 01:55:11;0.00;0.00;0.62;0.00;0.00;0.62;1.70;1.10;;;24.00;22.10;;;;;;2267154;61;20391;-56
2023/03/18 01:57:57;0.00;0.00;0.62;0.00;0.00;0.62;1.67;1.00;;;24.00;22.10;;;;;;2264693;61;20903;-58
2023/03/18 02:00:48;0.00;0.00;0.62;0.00;0.00;0.62;2.30;1.27;;;23.90;22.00;;;;;;2266033;61;20364;-56
2023/03/18 02:03:35;0.00;0.00;0.62;0.00;0.00;0.62;1.43;0.90;;;23.90;22.00;;;;;;2264634;61;20817;-54
2023/03/18 02:06:20;0.00;0.00;0.62;0.00;0.00;0.62;1.77;0.97;;;23.90;22.00;;;;;;2266891;61;20400;-52
2023/03/18 02:09:13;0.00;0.00;0.62;0.00;0.00;0.62;1.70;1.07;;;24.00;22.20;;;;;;2266015;61;20438;-56
2023/03/18 02:12:02;0.00;0.00;0.62;0.00;0.00;0.62;1.60;1.10;;;23.90;22.10;;;;;;2267015;61;20395;-58
2023/03/18 02:14:48;0.00;0.00;0.62;0.00;0.00;0.62;1.80;1.20;;;23.90;22.00;;;;;;2266624;61;20432;-54
2023/03/18 02:17:37;0.00;0.00;0.62;0.00;0.00;0.62;1.50;0.90;;;23.90;22.00;;;;;;2266905;61;20363;-60
2023/03/18 02:20:51;0.00;0.00;0.62;0.00;0.00;0.62;2.67;1.17;;;23.90;22.00;;;;;;2263866;61;20360;-54
2023/03/18 02:23:48;0.00;0.00;0.62;0.00;0.00;0.62;1.53;1.00;;;23.90;22.60;;;;;;2266319;61;20494;-54
2023/03/18 02:26:44;0.00;0.00;0.62;0.00;0.00;0.62;1.87;1.17;;;23.90;22.00;;;;;;2266929;61;20375;-57
2023/03/18 02:29:35;0.00;0.00;0.62;0.00;0.00;0.62;1.60;0.93;;;23.90;22.10;;;;;;2266763;61;20406;-57
2023/03/18 02:32:26;0.00;0.00;0.62;0.00;0.00;0.62;1.67;0.80;;;23.90;22.10;;;;;;2264274;61;20360;-58
2023/03/18 02:35:12;0.00;0.00;0.62;0.00;0.00;0.62;1.40;0.80;;;23.90;22.10;;;;;;2264518;61;20415;-56
2023/03/18 02:37:58;0.00;0.00;0.62;0.00;0.00;0.62;1.87;1.10;;;23.90;22.10;;;;;;2263532;61;20442;-57
2023/03/18 02:40:42;0.00;0.00;0.62;0.00;0.00;0.62;1.73;1.10;;;23.90;22.10;;;;;;2264348;61;20386;-56
2023/03/18 02:43:33;0.00;0.00;0.62;0.00;0.00;0.62;1.63;1.10;;;23.90;22.10;;;;;;2266827;61;20947;-54
2023/03/18 02:46:39;0.00;0.00;0.62;0.00;0.00;0.62;1.57;1.00;;;23.90;22.10;;;;;;2266313;61;20826;-56
2023/03/18 02:49:27;0.00;0.00;0.62;0.00;0.00;0.62;1.80;0.90;;;23.90;22.10;;;;;;2266384;61;20372;-55
2023/03/18 02:52:12;0.00;0.00;0.62;0.00;0.00;0.62;2.00;1.00;;;23.90;22.10;;;;;;2263617;61;20724;-58
2023/03/18 02:54:58;0.00;0.00;0.62;0.00;0.00;0.62;1.90;1.30;;;23.90;22.10;;;;;;2266843;61;20433;-59
2023/03/18 02:57:44;0.00;0.00;0.62;0.00;0.00;0.62;1.40;0.90;;;23.90;22.10;;;;;;2267065;61;20552;-60
2023/03/18 03:00:29;0.00;0.00;0.62;0.00;0.00;0.62;1.83;1.10;;;23.90;22.10;;;;;;2263638;61;20359;-54
2023/03/18 03:03:17;0.00;0.00;0.62;0.00;0.00;0.62;1.40;0.80;;;23.90;22.10;;;;;;2264632;61;20396;-59
2023/03/18 03:06:03;0.00;0.00;0.62;0.00;0.00;0.62;1.50;1.00;;;23.90;22.10;;;;;;2264553;61;20384;-57
2023/03/18 03:08:48;0.00;0.00;0.62;0.00;0.00;0.62;1.53;0.90;;;23.90;22.10;;;;;;2263601;61;20364;-53
2023/03/18 03:11:35;0.00;0.00;0.62;0.00;0.00;0.62;1.70;1.00;;;23.90;22.10;;;;;;2266867;61;20387;-58
2023/03/18 03:14:27;0.00;0.00;0.62;0.00;0.00;0.62;1.70;1.00;;;23.90;22.10;;;;;;2266084;61;20840;-57
2023/03/18 03:17:16;0.00;0.00;0.62;0.00;0.00;0.62;1.30;0.80;;;23.90;22.10;;;;;;2264485;61;20458;-55
2023/03/18 03:20:05;0.00;0.00;0.62;0.00;0.00;0.62;1.87;1.00;;;23.90;22.10;;;;;;2266649;61;20364;-60
2023/03/18 03:22:50;0.00;0.00;0.62;0.00;0.00;0.62;1.43;0.83;;;23.90;22.20;;;;;;2264054;61;20947;-59
2023/03/18 03:25:35;0.00;0.00;0.62;0.00;0.00;0.62;1.93;1.37;;;23.90;22.10;;;;;;2264444;61;20462;-56
2023/03/18 03:28:21;0.00;0.00;0.62;0.00;0.00;0.62;1.70;1.00;;;23.90;22.10;;;;;;2264651;61;20375;-54
2023/03/18 03:31:05;0.00;0.00;0.62;0.00;0.00;0.62;1.50;0.90;;;23.90;22.20;;;;;;2263509;61;20449;-56
2023/03/18 03:33:50;0.00;0.00;0.62;0.00;0.00;0.62;1.40;0.90;;;23.90;22.20;;;;;;2264403;61;20368;-56
2023/03/18 03:36:36;0.00;0.00;0.62;0.00;0.00;0.62;1.90;1.07;;;23.90;22.10;;;;;;2263169;61;20371;-58
2023/03/18 03:39:22;0.00;0.00;0.62;0.00;0.00;0.62;1.60;0.97;;;23.90;22.10;;;;;;2264056;61;20422;-58
2023/03/18 03:42:07;0.00;0.00;0.62;0.00;0.00;0.62;1.53;1.10;;;23.90;22.20;;;;;;2264590;61;20535;-59
2023/03/18 03:44:52;0.00;0.00;0.62;0.00;0.00;0.62;1.80;0.90;;;23.90;22.20;;;;;;2266066;61;20388;-60
2023/03/18 03:47:37;0.00;0.00;0.62;0.00;0.00;0.62;2.03;1.00;;;23.90;22.20;;;;;;2266718;61;20353;-56
2023/03/18 03:50:22;0.00;0.00;0.62;0.00;0.00;0.62;1.70;1.00;;;23.90;22.20;;;;;;2266496;61;20384;-54
2023/03/18 03:53:09;0.00;0.00;0.62;0.00;0.00;0.62;1.50;0.90;;;23.90;22.20;;;;;;2263763;61;20409;-58
2023/03/18 03:55:55;0.00;0.00;0.62;0.00;0.00;0.62;1.70;0.80;;;23.80;22.10;;;;;;2266591;61;20658;-57
2023/03/18 03:58:40;0.00;0.00;0.62;0.00;0.00;0.62;1.67;0.90;;;23.80;22.10;;;;;;2266132;61;20406;-54
2023/03/18 04:01:26;0.00;0.00;0.62;0.00;0.00;0.62;1.40;0.80;;;23.80;22.10;;;;;;2266572;61;20352;-60
2023/03/18 04:04:12;0.00;0.00;0.62;0.00;0.00;0.62;1.40;0.90;;;23.80;22.10;;;;;;2266588;61;20383;-57
2023/03/18 04:06:57;0.00;0.00;0.62;0.00;0.00;0.62;1.40;0.80;;;23.90;22.20;;;;;;2263425;61;20930;-58
2023/03/18 04:09:43;0.00;0.00;0.62;0.00;0.00;0.62;1.60;0.90;;;23.80;22.10;;;;;;2266282;61;20409;-53
2023/03/18 04:12:28;0.00;0.00;0.62;0.00;0.00;0.62;1.40;0.73;;;23.80;22.10;;;;;;2266620;61;20422;-57
2023/03/18 04:15:20;0.00;0.00;0.62;0.00;0.00;0.62;1.70;0.90;;;23.80;22.10;;;;;;2265882;61;20432;-57
2023/03/18 04:18:07;0.00;0.00;0.62;0.00;0.00;0.62;1.40;0.80;;;23.80;22.10;;;;;;2266697;61;20773;-56
2023/03/18 04:20:53;0.00;0.00;0.62;0.00;0.00;0.62;1.40;0.80;;;23.80;22.10;;;;;;2265552;61;20355;-57
2023/03/18 04:23:53;0.00;0.00;0.62;0.00;0.00;0.62;1.30;0.70;;;23.80;22.10;;;;;;2264223;61;20357;-54
2023/03/18 04:26:40;0.00;0.00;0.62;0.00;0.00;0.62;1.57;0.80;;;23.80;22.10;;;;;;2266789;61;20406;-58
2023/03/18 04:29:25;0.00;0.00;0.62;0.00;0.00;0.62;1.77;1.10;;;23.80;22.10;;;;;;2265684;61;20379;-55
2023/03/18 04:32:10;0.00;0.00;0.62;0.00;0.00;0.62;1.50;0.93;;;23.80;22.10;;;;;;2267415;61;20423;-56
2023/03/18 04:34:56;0.00;0.00;0.62;0.00;0.00;0.62;1.50;0.90;;;23.80;22.20;;;;;;2267277;61;20384;-58
2023/03/18 04:37:42;0.00;0.00;0.62;0.00;0.00;0.62;1.40;0.80;;;23.80;22.20;;;;;;2266817;61;21111;-56
2023/03/18 04:40:27;0.00;0.00;0.62;0.00;0.00;0.62;1.93;1.07;;;23.80;22.20;;;;;;2264464;61;20356;-52
2023/03/18 04:43:14;0.00;0.00;0.62;0.00;0.00;0.62;1.80;1.20;;;23.80;22.20;;;;;;2266594;61;20685;-56
2023/03/18 04:45:59;0.00;0.00;0.62;0.00;0.00;0.62;1.30;0.80;;;23.80;22.20;;;;;;2267011;61;20484;-60
2023/03/18 04:48:45;0.00;0.00;0.62;0.00;0.00;0.62;1.33;0.80;;;23.80;22.20;;;;;;2267409;61;20654;-60
2023/03/18 04:51:31;0.00;0.00;0.62;0.00;0.00;0.62;1.37;0.83;;;23.80;22.20;;;;;;2266609;61;20411;-54
2023/03/18 04:54:16;0.00;0.00;0.62;0.00;0.00;0.62;1.47;0.90;;;23.80;22.20;;;;;;2267221;61;20393;-60
2023/03/18 04:57:02;0.00;0.00;0.62;0.00;0.00;0.62;1.50;0.97;;;23.80;22.20;;;;;;2264838;61;20359;-56
2023/03/18 04:59:51;0.00;0.00;0.62;0.00;0.00;0.62;1.30;0.73;;;23.80;22.20;;;;;;2263669;61;20406;-58
2023/03/18 05:02:38;0.00;0.00;0.62;0.00;0.00;0.62;2.10;1.00;;;23.80;22.20;;;;;;2264297;61;20363;-56
2023/03/18 05:05:23;0.00;0.00;0.62;0.00;0.00;0.62;1.50;0.90;;;23.80;22.20;;;;;;2266544;61;20467;-57
2023/03/18 05:08:09;0.00;0.00;0.62;0.00;0.00;0.62;1.90;1.20;;;23.80;22.20;;;;;;2267340;61;20360;-58
2023/03/18 05:10:54;0.00;0.00;0.62;0.00;0.00;0.62;1.90;0.90;;;23.80;22.20;;;;;;2264336;61;20803;-58
2023/03/18 05:13:40;0.00;0.00;0.62;0.00;0.00;0.62;1.50;0.80;;;23.80;22.20;;;;;;2264203;61;20364;-59
2023/03/18 05:16:28;0.00;0.00;0.62;0.00;0.00;0.62;1.70;0.90;;;23.80;22.20;;;;;;2267374;61;20363;-53
2023/03/18 05:19:14;0.00;0.00;0.62;0.00;0.00;0.62;1.40;0.90;;;23.80;22.20;;;;;;2264074;61;20452;-53
2023/03/18 05:22:07;0.00;0.00;0.62;0.00;0.00;0.62;1.40;0.80;;;23.80;22.20;;;;;;2266708;61;20352;-58
2023/03/18 05:24:52;0.00;0.00;0.62;0.00;0.00;0.62;1.50;0.90;;;23.80;22.20;;;;;;2264149;61;20387;-54
2023/03/18 05:27:40;0.00;0.00;0.62;0.00;0.00;0.62;1.50;0.80;;;23.80;22.20;;;;;;2266644;61;20456;-58
2023/03/18 05:30:33;0.00;0.00;0.62;0.00;0.00;0.62;1.30;0.77;;;23.80;22.20;;;;;;2266680;61;20383;-55
2023/03/18 05:33:20;0.00;0.00;0.62;0.00;0.00;0.62;2.00;1.20;;;23.80;22.20;;;;;;2267004;61;20531;-59
2023/03/18 05:36:10;0.00;0.00;0.62;0.00;0.00;0.62;1.50;0.80;;;23.80;22.20;;;;;;2266403;61;20917;-56
2023/03/18 05:39:04;0.00;0.00;0.62;0.00;0.00;0.62;1.43;0.83;;;23.80;22.20;;;;;;2266824;61;20825;-59
2023/03/18 05:41:50;0.00;0.00;0.62;0.00;0.00;0.62;1.50;0.73;;;23.80;22.20;;;;;;2264572;61;20938;-58
2023/03/18 05:44:42;0.00;0.00;0.62;0.00;0.00;0.62;2.03;0.70;;;23.80;22.20;;;;;;2266958;61;20395;-56
2023/03/18 05:47:28;0.00;0.00;0.62;0.00;0.00;0.62;1.33;0.70;;;23.80;22.20;;;;;;2267045;61;20359;-54
2023/03/18 05:50:31;0.00;0.00;0.62;0.00;0.00;0.62;1.50;0.90;;;23.80;22.30;;;;;;2266008;61;20894;-59
2023/03/18 05:53:17;0.00;0.00;0.62;0.00;0.00;0.62;1.77;0.90;;;23.80;22.20;;;;;;2264119;61;20414;-57
2023/03/18 05:56:05;0.00;0.00;0.62;0.00;0.00;0.62;1.47;0.90;;;23.80;22.20;;;;;;2267100;61;20392;-56
2023/03/18 05:58:50;0.00;0.00;0.62;0.00;0.00;0.62;1.50;0.70;;;23.70;22.20;;;;;;2265912;61;20361;-55
2023/03/18 06:01:45;0.00;0.00;0.62;0.00;0.00;0.62;2.53;0.80;;;23.70;22.20;;;;;;2267069;61;20433;-55
2023/03/18 06:04:30;0.00;0.00;0.62;0.00;0.00;0.62;2.40;0.83;;;23.70;22.20;;;;;;2266308;61;20425;-54
2023/03/18 06:07:17;0.00;0.00;0.62;0.00;0.00;0.62;1.30;0.70;;;23.70;22.20;;;;;;2267019;61;20415;-59
2023/03/18 06:10:02;0.00;0.00;0.62;0.00;0.00;0.62;1.50;0.90;;;23.70;22.20;;;;;;2264463;61;20904;-56
2023/03/18 06:12:47;0.00;0.00;0.62;0.00;0.00;0.62;1.40;0.90;;;23.70;22.20;;;;;;2266411;61;20406;-55
2023/03/18 06:15:32;0.00;0.00;0.62;0.00;0.00;0.62;1.40;0.80;;;23.70;22.20;;;;;;2278614;40;20407;-57
2023/03/18 06:18:17;0.00;0.00;0.62;0.00;0.00;0.62;1.53;0.80;;;23.70;22.20;;;;;;2267077;61;20430;-57
2023/03/18 06:21:02;0.00;0.00;0.62;0.00;0.00;0.62;1.40;0.90;;;23.70;22.20;;;;;;2263835;61;20375;-55
2023/03/18 06:23:48;0.00;0.00;0.62;0.00;0.00;0.62;1.40;0.80;;;23.70;22.20;;;;;;2264608;61;20771;-56
2023/03/18 06:26:34;0.00;0.00;0.62;0.00;0.00;0.62;1.77;1.10;;;23.70;22.20;;;;;;2262121;61;20411;-55
2023/03/18 06:29:20;0.00;0.00;0.62;0.00;0.00;0.62;1.40;0.70;;;23.70;22.20;;;;;;2259515;61;20361;-58
2023/03/18 06:32:06;0.00;0.00;0.62;0.00;0.00;0.62;1.27;0.70;;;23.70;22.20;;;;;;2262991;61;20407;-56
2023/03/18 06:34:51;0.00;0.00;0.62;0.00;0.00;0.62;1.20;0.70;;;23.70;22.20;;;;;;2262300;61;20839;-56
2023/03/18 06:37:37;0.00;0.00;0.62;0.00;0.00;0.62;1.40;0.80;;;23.70;22.20;;;;;;2260134;61;20360;-56
2023/03/18 06:40:24;0.00;0.00;0.62;0.00;0.00;0.62;1.67;0.80;;;23.70;22.20;;;;;;2260200;61;20415;-57
2023/03/18 06:43:11;0.00;0.00;0.62;0.00;0.00;0.62;1.50;0.90;;;23.70;22.20;;;;;;2259282;61;20437;-55
2023/03/18 06:45:59;0.00;0.00;0.62;0.00;0.00;0.62;1.37;0.73;;;23.70;22.20;;;;;;2262862;61;20458;-58
2023/03/18 06:48:45;0.00;0.00;0.62;0.00;0.00;0.62;1.20;0.63;;;23.70;22.20;;;;;;2262190;61;20806;-57
2023/03/18 06:51:33;0.00;0.00;0.62;0.00;0.00;0.62;1.30;0.70;;;23.70;22.20;;;;;;2262926;61;20412;-58
2023/03/18 06:54:19;0.00;0.00;0.62;0.00;0.00;0.62;1.30;0.80;;;23.70;22.20;;;;;;2262815;61;20423;-59
2023/03/18 06:57:06;0.00;0.00;0.62;0.00;0.00;0.62;1.20;0.70;;;23.70;22.20;;;;;;2262045;61;20964;-56
2023/03/18 06:59:52;0.00;0.00;0.62;0.00;0.00;0.62;1.40;0.77;;;23.70;22.20;;;;;;2262619;61;20453;-59
2023/03/18 07:02:37;0.00;0.00;0.62;0.00;0.00;0.62;1.40;0.70;;;23.70;22.20;;;;;;2259906;61;20905;-59
2023/03/18 07:05:23;0.00;0.00;0.62;0.00;0.00;0.62;1.97;0.70;;;23.70;22.20;;;;;;2261965;61;20579;-57
2023/03/18 07:08:09;0.00;0.00;0.62;0.00;0.00;0.62;1.43;0.67;;;23.70;22.20;;;;;;2262880;61;20380;-57
2023/03/18 07:10:54;0.00;0.00;0.62;0.00;0.00;0.62;1.43;0.80;;;23.70;22.20;;;;;;2258821;61;20948;-54
2023/03/18 07:13:40;0.00;0.00;0.62;0.00;0.00;0.62;1.50;0.80;;;23.70;22.20;;;;;;2262677;61;20430;-59
2023/03/18 07:16:32;0.00;0.00;0.62;0.00;0.00;0.62;1.50;0.80;;;23.70;22.30;;;;;;2262705;61;20411;-55
2023/03/18 07:19:18;0.00;0.00;0.62;0.00;0.00;0.62;1.47;0.80;;;23.70;22.20;;;;;;2261627;61;20384;-58
2023/03/18 07:22:03;0.00;0.00;0.62;0.00;0.00;0.62;1.60;1.00;;;23.70;22.20;;;;;;2259722;61;20364;-57
2023/03/18 07:24:51;0.00;0.00;0.62;0.00;0.00;0.62;1.50;0.83;;;23.70;22.30;;;;;;2262454;61;20435;-58
2023/03/18 07:27:36;0.00;0.00;0.62;0.00;0.00;0.62;1.30;0.80;;;23.70;22.30;;;;;;2262295;61;20373;-55
2023/03/18 07:30:22;0.00;0.00;0.62;0.00;0.00;0.62;1.27;0.70;;;23.70;22.20;;;;;;2260092;61;20878;-58
2023/03/18 07:33:07;0.00;0.00;0.62;0.00;0.00;0.62;1.50;0.90;;;23.70;22.30;;;;;;2259708;61;20910;-58
2023/03/18 07:35:52;0.00;0.00;0.62;0.00;0.00;0.62;1.50;0.90;;;23.70;22.30;;;;;;2262975;61;20401;-57
2023/03/18 07:38:37;0.00;0.00;0.62;0.00;0.00;0.62;1.40;0.80;;;23.70;22.30;;;;;;2260375;61;20460;-59
2023/03/18 07:41:21;0.00;0.00;0.62;0.00;0.00;0.62;1.50;0.80;;;23.70;22.30;;;;;;2259717;61;20360;-57
2023/03/18 07:44:06;0.00;0.00;0.62;0.00;0.00;0.62;1.60;0.80;;;23.70;22.30;;;;;;2260358;61;20984;-57
2023/03/18 07:46:52;0.00;0.00;0.62;0.00;0.00;0.62;1.40;0.83;;;23.70;22.30;;;;;;2260164;61;20852;-58
2023/03/18 07:49:37;0.00;0.00;0.62;0.00;0.00;0.62;1.83;0.87;;;23.70;22.30;;;;;;2259455;61;20527;-59
2023/03/18 07:52:22;0.00;0.00;0.62;0.00;0.00;0.62;1.50;0.90;;;23.70;22.30;;;;;;2262514;61;20567;-60
2023/03/18 07:55:08;0.00;0.00;0.62;0.00;0.00;0.62;1.40;0.73;;;23.70;22.30;;;;;;2260083;61;20403;-54
2023/03/18 07:57:53;0.00;0.00;0.62;0.00;0.00;0.62;1.90;0.97;;;23.70;22.30;;;;;;2260299;61;20460;-54
2023/03/18 08:00:38;0.00;0.00;0.62;0.00;0.00;0.62;1.40;0.80;;;23.70;22.30;;;;;;2259768;61;20353;-56
2023/03/18 08:03:24;0.00;0.00;0.62;0.00;0.00;0.62;1.43;0.83;;;23.70;22.30;;;;;;2259672;61;20452;-58
2023/03/18 08:06:10;0.00;0.00;0.62;0.00;0.00;0.62;1.33;0.80;;;23.70;22.30;;;;;;2260217;61;20385;-57
2023/03/18 08:08:54;0.00;0.00;0.62;0.00;0.00;0.62;2.00;1.03;;;23.70;22.30;;;;;;2259805;61;20908;-57
2023/03/18 08:11:40;0.00;0.00;0.62;0.00;0.00;0.62;1.33;0.73;;;23.70;22.30;;;;;;2259477;61;20384;-58
2023/03/18 08:14:25;0.00;0.00;0.62;0.00;0.00;0.62;1.30;0.80;;;23.70;22.30;;;;;;2260282;61;20827;-57
2023/03/18 08:17:10;0.00;0.00;0.62;0.00;0.00;0.62;1.60;1.00;;;23.70;22.30;;;;;;2262672;61;20435;-58
2023/03/18 08:19:57;0.00;0.00;0.62;0.00;0.00;0.62;1.70;1.00;;;23.70;22.30;;;;;;2260030;61;20780;-58
2023/03/18 08:22:42;0.00;0.00;0.62;0.00;0.00;0.62;2.77;1.23;;;23.70;22.40;;;;;;2260145;61;20357;-54
2023/03/18 08:25:26;0.00;0.00;0.62;0.00;0.00;0.62;2.10;1.20;;;23.70;22.30;;;;;;2259520;61;20439;-56
2023/03/18 08:28:11;0.00;0.00;0.62;0.00;0.00;0.62;1.80;1.20;;;23.70;22.30;;;;;;2260104;61;20384;-59
2023/03/18 08:30:58;0.00;0.00;0.62;0.00;0.00;0.62;1.80;1.20;;;23.70;22.40;;;;;;2259698;61;20454;-53
2023/03/18 08:33:42;0.00;0.00;0.62;0.00;0.00;0.62;2.47;1.87;;;23.80;22.40;;;;;;2259621;61;20364;-57
2023/03/18 08:36:28;0.00;0.00;0.62;0.00;0.00;0.62;2.13;1.67;;;23.70;22.40;;;;;;2290042;40;20411;-60
2023/03/18 08:39:13;0.00;0.00;0.62;0.00;0.00;0.62;2.03;1.30;;;23.80;22.40;;;;;;2267980;61;20421;-54
2023/03/18 08:41:58;0.00;0.00;0.62;0.00;0.00;0.62;1.90;1.37;;;23.80;23.00;;;;;;2267855;61;20405;-59
2023/03/18 08:44:43;0.00;0.00;0.62;0.00;0.00;0.62;2.20;1.57;;;23.80;22.50;;;;;;2268002;61;20912;-56
2023/03/18 08:47:28;0.00;0.00;0.62;0.00;0.00;0.62;2.03;1.47;;;23.80;22.50;;;;;;2267545;61;20929;-58
2023/03/18 08:50:14;0.00;0.00;0.62;0.00;0.00;0.62;1.93;1.30;;;23.80;22.50;;;;;;2267863;61;20354;-56
2023/03/18 08:53:02;0.00;0.00;0.62;0.00;0.00;0.62;2.53;1.70;;;23.80;22.50;;;;;;2268268;61;20374;-59
2023/03/18 08:55:47;0.00;0.00;0.62;0.00;0.00;0.62;2.30;1.50;;;23.80;22.50;;;;;;2267554;61;20429;-57
2023/03/18 08:58:32;0.00;0.00;0.62;0.00;0.00;0.62;2.50;1.73;;;23.80;22.50;;;;;;2268316;61;20397;-56
2023/03/18 09:01:20;0.00;0.00;0.62;0.00;0.00;0.62;2.60;1.63;;;23.80;22.60;;;;;;2268075;61;20378;-54
2023/03/18 09:04:05;0.00;0.00;0.62;0.00;0.00;0.62;2.80;1.90;;;23.80;22.50;;;;;;2267551;61;20443;-56
2023/03/18 09:06:50;0.00;0.00;0.62;0.00;0.00;0.62;3.10;2.10;;;23.80;22.50;;;;;;2268181;61;20907;-56
2023/03/18 09:09:36;0.00;0.00;0.62;0.00;0.00;0.62;2.40;1.80;;;23.80;22.60;;;;;;2267168;61;20546;-58
2023/03/18 09:12:21;0.00;0.00;0.62;0.00;0.00;0.62;2.90;1.50;;;23.80;22.60;;;;;;2268376;61;20946;-56
2023/03/18 09:15:09;0.00;0.00;0.62;0.00;0.00;0.62;2.37;1.70;;;23.80;22.60;;;;;;2268265;61;20410;-56
2023/03/18 09:17:53;0.00;0.00;0.62;0.00;0.00;0.62;3.23;2.70;;;23.80;22.60;;;;;;2268273;61;20362;-55
2023/03/18 09:20:39;0.00;0.00;0.62;0.00;0.00;0.62;3.00;2.20;;;23.80;22.60;;;;;;2268506;61;20387;-58
2023/03/18 09:23:25;0.00;0.00;0.62;0.00;0.00;0.62;3.80;2.57;;;23.90;22.70;;;;;;2268798;61;20425;-56
2023/03/18 09:26:11;0.00;0.00;0.62;0.00;0.00;0.62;3.50;2.33;;;23.90;22.70;;;;;;2268307;61;20379;-58
2023/03/18 09:28:56;0.00;0.00;0.62;0.00;0.00;0.62;3.87;2.50;;;23.90;22.70;;;;;;2268475;61;20405;-58
2023/03/18 09:31:40;0.00;0.00;0.62;0.00;0.00;0.62;3.93;2.50;;;23.90;22.70;;;;;;2268153;61;20467;-54
2023/03/18 09:34:26;0.00;0.00;0.62;0.00;0.00;0.62;4.17;2.90;;;23.90;22.70;;;;;;2268762;61;20380;-56
2023/03/18 09:37:12;0.00;0.00;0.62;0.00;0.00;0.62;3.63;2.37;;;23.90;22.70;;;;;;2268966;61;20821;-54
2023/03/18 09:39:58;0.00;0.00;0.62;0.00;0.00;0.62;4.50;3.40;;;23.90;22.70;;;;;;2268078;61;20363;-57
2023/03/18 09:43:01;0.00;0.00;0.62;0.00;0.00;0.62;4.03;3.00;;;23.90;22.80;;;;;;2268822;61;20356;-58
2023/03/18 09:46:00;0.00;0.00;0.62;0.00;0.00;0.62;3.87;3.40;;;23.90;22.80;;;;;;2268301;61;20436;-58
2023/03/18 09:49:32;0.00;0.00;0.62;0.00;0.00;0.62;4.47;3.60;;;24.00;22.80;;;;;;2268844;61;20360;-58
2023/03/18 09:52:22;0.00;0.00;0.62;0.00;0.00;0.62;4.90;3.93;;;24.00;22.90;;;;;;2268219;61;20450;-59
2023/03/18 09:55:20;0.00;0.00;0.62;0.00;0.00;0.62;4.40;3.60;;;24.00;22.90;;;;;;2267829;61;20382;-60
2023/03/18 09:58:17;0.00;0.00;0.62;0.00;0.00;0.62;5.10;3.77;;;24.00;22.90;;;;;;2268758;61;20391;-60
2023/03/18 10:01:06;0.00;0.00;0.62;0.00;0.00;0.62;4.67;3.80;;;24.00;22.90;;;;;;2267913;61;20367;-52
2023/03/18 10:03:56;0.00;0.00;0.62;0.00;0.00;0.62;5.60;3.50;;;24.00;22.90;;;;;;2268654;61;20960;-58
2023/03/18 10:06:43;0.00;0.00;0.62;0.00;0.00;0.62;5.13;3.63;;;24.00;22.90;;;;;;2268797;61;20568;-58
2023/03/18 10:09:33;0.00;0.00;0.62;0.00;0.00;0.62;5.50;4.33;;;24.10;23.00;;;;;;2267717;61;20362;-56
2023/03/18 10:12:29;0.00;0.00;0.62;0.00;0.00;0.62;4.30;3.73;;;24.10;23.00;;;;;;2268661;61;20934;-57
2023/03/18 10:15:21;0.00;0.00;0.62;0.00;0.00;0.62;6.50;4.13;;;24.10;23.00;;;;;;2268395;61;20417;-58
2023/03/18 10:18:14;0.00;0.00;0.62;0.00;0.00;0.62;5.63;5.07;;;24.10;23.00;;;;;;2268255;61;20410;-55
2023/03/18 10:21:10;0.00;0.00;0.62;0.00;0.00;0.62;5.43;4.33;;;24.20;23.10;;;;;;2268389;61;20907;-56
2023/03/18 10:24:06;0.00;0.00;0.62;0.00;0.00;0.62;4.93;4.10;;;24.20;23.20;;;;;;2268140;61;20895;-55
2023/03/18 10:27:02;0.00;0.00;0.62;0.00;0.00;0.62;4.73;4.23;;;24.20;23.10;;;;;;2268988;61;20367;-58
2023/03/18 10:29:56;0.00;0.00;0.62;0.00;0.00;0.62;5.90;4.80;;;24.20;23.10;;;;;;2268252;61;20922;-55
2023/03/18 10:32:53;0.00;0.00;0.62;0.00;0.00;0.62;5.23;4.23;;;24.20;23.10;;;;;;2268067;61;20382;-54
2023/03/18 10:35:47;0.00;0.00;0.62;0.00;0.00;0.62;5.37;4.50;;;24.20;23.20;;;;;;2268517;61;20383;-56
2023/03/18 10:38:36;0.00;0.00;0.62;0.00;0.00;0.62;7.20;5.10;;;24.30;23.20;;;;;;2267835;61;20409;-53
2023/03/18 10:41:27;0.00;0.00;0.62;0.00;0.00;0.62;4.63;4.07;;;24.30;23.30;;;;;;2268852;61;20363;-56
2023/03/18 10:44:19;0.00;0.00;0.62;0.00;0.00;0.62;5.80;3.43;;;24.30;23.60;;;;;;2267848;61;20378;-55
2023/03/18 10:47:14;0.00;0.00;0.62;0.00;0.00;0.62;3.57;3.00;;;24.30;23.80;;;;;;2268474;61;20363;-60
2023/03/18 10:50:10;0.00;0.00;0.62;0.00;0.00;0.62;3.50;2.70;;;24.40;23.80;;;;;;2268203;61;20887;-59
2023/03/18 10:53:03;0.00;0.00;0.62;0.00;0.00;0.62;4.80;2.93;;;24.40;23.70;;;;;;2267692;61;20436;-56
2023/03/18 10:55:58;0.00;0.00;0.62;0.00;0.00;0.62;4.80;3.40;;;24.40;23.70;;;;;;2268735;61;20805;-59
2023/03/18 10:58:45;0.00;0.00;0.62;0.00;0.00;0.62;3.97;3.07;;;24.40;23.70;;;;;;2268961;61;20990;-58
2023/03/18 11:01:30;0.00;0.00;0.62;0.00;0.00;0.62;6.03;4.00;;;24.50;23.80;;;;;;2268115;61;20354;-62